createdAt,value
2023-01-18T00:07:22.873Z,3.40
2023-01-18T00:22:25.249Z,3.20
2023-01-18T00:37:27.702Z,3.20
2023-01-18T00:52:30.557Z,3.20
2023-01-18T01:07:33.015Z,3.10
2023-01-18T01:22:54.071Z,2.90
2023-01-18T01:37:56.364Z,2.80
2023-01-18T01:52:58.886Z,2.80
2023-01-18T02:08:03.340Z,2.70
2023-01-18T02:23:18.258Z,2.70
2023-01-18T02:38:37.850Z,2.60
2023-01-18T02:53:45.230Z,2.60
2023-01-18T03:08:49.961Z,2.70
2023-01-18T03:23:52.463Z,2.70
2023-01-18T03:39:05.816Z,2.60
2023-01-18T03:54:08.050Z,2.60
2023-01-18T04:09:11.810Z,2.50
2023-01-18T04:24:14.429Z,2.50
2023-01-18T04:39:17.172Z,2.30
2023-01-18T04:54:19.524Z,2.30
2023-01-18T05:09:22.141Z,2.20
2023-01-18T05:24:24.585Z,2.30
2023-01-18T05:39:26.930Z,2.10
2023-01-18T05:54:29.253Z,2.10
2023-01-18T06:09:31.740Z,2.00
2023-01-18T06:24:34.169Z,2.20
2023-01-18T06:39:36.503Z,1.90
2023-01-18T06:54:39.058Z,2.00
2023-01-18T07:09:41.618Z,2.10
2023-01-18T07:24:44.037Z,2.20
2023-01-18T07:39:46.583Z,2.00
2023-01-18T07:54:48.963Z,1.90
2023-01-18T08:09:51.743Z,2.00
2023-01-18T08:24:54.268Z,1.90
2023-01-18T08:39:56.581Z,1.90
2023-01-18T08:54:59.000Z,1.80
2023-01-18T09:10:01.392Z,2.10
2023-01-18T09:25:05.727Z,2.00
2023-01-18T09:40:18.704Z,2.00
2023-01-18T09:55:54.383Z,2.30
2023-01-18T10:11:09.728Z,2.60
2023-01-18T10:26:19.318Z,2.60
2023-01-18T10:41:27.670Z,2.70
2023-01-18T10:56:30.214Z,2.70
2023-01-18T11:12:05.257Z,3.20
2023-01-18T11:27:21.252Z,3.40
2023-01-18T11:42:35.018Z,3.40
2023-01-18T11:57:37.755Z,3.60
2023-01-18T12:13:03.326Z,3.80
2023-01-18T12:28:41.472Z,4.20
2023-01-18T12:43:53.106Z,4.50
2023-01-18T12:59:06.566Z,4.80
2023-01-18T13:14:13.426Z,4.90
2023-01-18T13:29:29.103Z,5.00
2023-01-18T13:44:43.609Z,5.00
2023-01-18T13:59:49.515Z,5.20
2023-01-18T14:14:59.007Z,4.90
2023-01-18T14:30:13.440Z,4.70
2023-01-18T14:45:29.309Z,4.90
2023-01-18T15:00:31.801Z,4.70
2023-01-18T15:15:43.998Z,4.70
2023-01-18T15:30:53.907Z,4.30
2023-01-18T15:45:58.183Z,4.50
2023-01-18T16:01:04.061Z,4.50
2023-01-18T16:16:15.444Z,4.30
2023-01-18T16:31:22.787Z,4.30
2023-01-18T16:46:25.463Z,4.10
2023-01-18T17:01:29.748Z,4.00
2023-01-18T17:16:35.137Z,3.90
2023-01-18T17:31:51.373Z,3.80
2023-01-18T17:46:54.851Z,3.70
2023-01-18T18:01:57.449Z,3.70
2023-01-18T18:17:02.026Z,3.60
2023-01-18T18:32:07.665Z,3.50
2023-01-18T18:47:10.084Z,3.60
2023-01-18T19:02:15.304Z,3.40
2023-01-18T19:17:28.981Z,3.40
2023-01-18T19:32:32.018Z,3.10
2023-01-18T19:47:34.462Z,3.00
2023-01-18T20:02:41.232Z,3.00
2023-01-18T20:17:43.894Z,2.90
2023-01-18T20:32:46.299Z,2.90
2023-01-18T20:47:48.786Z,2.90
2023-01-18T21:02:51.489Z,3.10
2023-01-18T21:17:54.119Z,3.10
2023-01-18T21:32:56.563Z,3.20
2023-01-18T21:48:00.933Z,3.30
2023-01-18T22:03:03.822Z,3.10
2023-01-18T22:18:06.624Z,3.30
2023-01-18T22:33:09.285Z,3.30
2023-01-18T22:48:11.640Z,3.10
2023-01-18T23:03:15.392Z,2.80
2023-01-18T23:18:18.515Z,2.80
2023-01-18T23:33:21.738Z,2.90
2023-01-18T23:48:43.089Z,2.70
